createdAt,value
2019-05-16T00:09:28.573Z,100677.45
2019-05-16T00:12:29.156Z,100688.41
2019-05-16T00:16:00.627Z,100681.19
2019-05-16T00:19:03.313Z,100676.03
2019-05-16T00:22:04.624Z,100668.39
2019-05-16T00:24:40.754Z,100662.48
2019-05-16T00:27:20.481Z,100663.61
2019-05-16T00:29:53.881Z,100665.35
2019-05-16T00:32:29.486Z,100659.55
2019-05-16T00:35:03.007Z,100652.47
2019-05-16T00:37:35.488Z,100651.78
2019-05-16T00:40:09.245Z,100651.09
2019-05-16T00:42:49.396Z,100646.45
2019-05-16T00:45:29.171Z,100642.30
2019-05-16T00:48:18.402Z,100632.91
2019-05-16T00:51:28.640Z,100629.52
2019-05-16T00:54:40.483Z,100625.92
2019-05-16T00:57:13.354Z,100623.75
2019-05-16T01:00:15.305Z,100610.85
2019-05-16T01:02:57.878Z,100603.59
2019-05-16T01:05:58.705Z,100606.70
2019-05-16T01:08:39.241Z,100609.77
2019-05-16T01:17:50.262Z,100595.57
2019-05-16T01:20:38.445Z,100598.43
2019-05-16T01:26:52.350Z,100593.52
2019-05-16T01:29:29.058Z,100590.70
2019-05-16T01:32:11.225Z,100586.05
2019-05-16T01:34:52.736Z,100583.62
2019-05-16T01:37:34.914Z,100585.39
2019-05-16T01:40:35.382Z,100581.80
2019-05-16T01:43:01.764Z,100583.50
2019-05-16T01:45:48.960Z,100583.64
2019-05-16T01:48:29.169Z,100576.77
2019-05-16T01:51:18.325Z,100568.59
2019-05-16T01:54:11.568Z,100572.30
2019-05-16T01:56:42.047Z,100569.13
2019-05-16T01:59:14.841Z,100570.98
2019-05-16T02:01:45.383Z,100565.26
2019-05-16T02:04:18.422Z,100564.89
2019-05-16T02:06:54.454Z,100560.92
2019-05-16T02:09:22.716Z,100562.24
2019-05-16T02:11:53.627Z,100561.77
2019-05-16T02:14:24.456Z,100559.91
2019-05-16T02:16:58.046Z,100561.27
2019-05-16T02:19:30.189Z,100557.74
2019-05-16T02:22:01.315Z,100553.24
2019-05-16T02:24:32.054Z,100553.62
2019-05-16T02:27:02.456Z,100554.47
2019-05-16T02:29:32.924Z,100548.86
2019-05-16T02:32:04.910Z,100549.66
2019-05-16T02:34:35.824Z,100541.70
2019-05-16T02:37:23.792Z,100539.30
2019-05-16T02:39:40.974Z,100540.25
2019-05-16T02:42:12.048Z,100537.86
2019-05-16T02:44:43.484Z,100530.29
2019-05-16T02:47:14.002Z,100532.66
2019-05-16T02:49:45.074Z,100529.88
2019-05-16T02:52:15.381Z,100529.70
2019-05-16T02:54:46.188Z,100529.23
2019-05-16T02:57:21.154Z,100523.43
2019-05-16T02:59:51.312Z,100522.33
2019-05-16T03:02:22.554Z,100519.91
2019-05-16T03:04:52.900Z,100520.62
2019-05-16T03:07:41.229Z,100512.81
2019-05-16T03:10:03.824Z,100511.17
2019-05-16T03:12:41.109Z,100507.48
2019-05-16T03:15:14.982Z,100504.98
2019-05-16T03:17:58.898Z,100503.09
2019-05-16T03:20:25.643Z,100501.23
2019-05-16T03:23:02.273Z,100494.95
2019-05-16T03:25:34.121Z,100490.66
2019-05-16T03:28:04.715Z,100487.83
2019-05-16T03:34:23.244Z,100480.92
2019-05-16T03:36:55.700Z,100465.38
2019-05-16T03:40:23.928Z,100464.36
2019-05-16T03:42:41.358Z,100461.53
2019-05-16T03:45:34.723Z,100460.43
2019-05-16T03:48:31.273Z,100461.19
2019-05-16T03:52:20.723Z,100466.48
2019-05-16T03:59:10.939Z,100453.80
2019-05-16T04:02:03.735Z,100447.56
2019-05-16T04:04:41.773Z,100446.49
2019-05-16T04:07:21.465Z,100446.21
2019-05-16T04:09:52.286Z,100446.72
2019-05-16T04:13:00.899Z,100444.95
2019-05-16T04:15:44.986Z,100450.11
2019-05-16T04:18:33.919Z,100446.23
2019-05-16T04:21:31.799Z,100436.31
2019-05-16T04:24:01.510Z,100436.97
2019-05-16T04:26:41.406Z,100437.34
2019-05-16T04:29:23.344Z,100440.74
2019-05-16T04:31:56.343Z,100429.77
2019-05-16T04:34:27.318Z,100431.80
2019-05-16T04:37:06.593Z,100433.72
2019-05-16T04:39:41.484Z,100427.81
2019-05-16T04:42:12.115Z,100426.94
2019-05-16T04:44:44.252Z,100417.73
2019-05-16T04:47:20.864Z,100422.21
2019-05-16T04:49:52.106Z,100421.55
2019-05-16T04:52:26.637Z,100415.69
2019-05-16T04:55:00.999Z,100417.73
2019-05-16T04:57:31.222Z,100414.61
2019-05-16T05:00:06.554Z,100411.47
2019-05-16T05:02:36.930Z,100410.52
2019-05-16T05:05:07.858Z,100410.51
2019-05-16T05:07:41.658Z,100409.48
2019-05-16T05:10:24.688Z,100406.87
2019-05-16T05:13:12.663Z,100402.56
2019-05-16T05:15:50.960Z,100405.66
2019-05-16T05:18:21.698Z,100414.07
2019-05-16T05:20:57.386Z,100412.27
2019-05-16T05:23:33.784Z,100412.59
2019-05-16T05:26:11.925Z,100415.62
2019-05-16T05:28:52.910Z,100407.64
2019-05-16T05:31:36.190Z,100408.23
2019-05-16T05:34:44.340Z,100404.56
2019-05-16T05:37:22.399Z,100398.57
2019-05-16T05:40:31.613Z,100399.45
2019-05-16T05:43:15.334Z,100398.00
2019-05-16T05:46:20.375Z,100395.27
2019-05-16T05:48:54.425Z,100404.25
2019-05-16T05:51:54.593Z,100398.48
2019-05-16T05:54:30.841Z,100396.97
2019-05-16T05:57:24.515Z,100395.46
2019-05-16T06:01:02.214Z,100390.16
2019-05-16T06:03:04.060Z,100390.45
2019-05-16T06:05:50.819Z,100383.33
2019-05-16T06:08:27.797Z,100394.33
2019-05-16T06:11:04.335Z,100394.08
2019-05-16T06:13:40.262Z,100391.08
2019-05-16T06:16:40.269Z,100393.84
2019-05-16T06:19:26.007Z,100390.72
2019-05-16T06:22:45.484Z,100387.13
2019-05-16T06:25:35.909Z,100379.66
2019-05-16T06:28:43.734Z,100377.39
2019-05-16T06:31:40.580Z,100379.33
2019-05-16T06:34:26.269Z,100374.36
2019-05-16T06:37:01.405Z,100369.96
2019-05-16T06:40:14.164Z,100368.70
2019-05-16T06:42:50.899Z,100353.66
2019-05-16T06:45:52.743Z,100356.01
2019-05-16T06:48:39.775Z,100352.83
2019-05-16T06:51:21.510Z,100354.05
2019-05-16T06:53:55.254Z,100348.77
2019-05-16T06:56:31.677Z,100342.44
2019-05-16T06:59:10.538Z,100342.02
2019-05-16T07:01:50.478Z,100347.52
2019-05-16T07:04:33.752Z,100338.45
2019-05-16T07:07:09.356Z,100342.84
2019-05-16T07:09:41.795Z,100337.36
2019-05-16T07:12:12.110Z,100332.43
2019-05-16T07:14:45.612Z,100336.89
2019-05-16T07:17:20.358Z,100335.48
2019-05-16T07:19:53.169Z,100337.12
2019-05-16T07:22:23.575Z,100342.08
2019-05-16T07:24:55.147Z,100340.42
2019-05-16T07:27:26.283Z,100336.27
2019-05-16T07:29:58.486Z,100333.28
2019-05-16T07:32:30.201Z,100325.61
2019-05-16T07:35:00.929Z,100325.73
2019-05-16T07:37:31.663Z,100330.59
2019-05-16T07:40:16.060Z,100324.61
2019-05-16T07:42:34.092Z,100330.36
2019-05-16T07:45:04.906Z,100328.94
2019-05-16T07:47:40.315Z,100331.86
2019-05-16T07:50:11.311Z,100318.93
2019-05-16T07:52:45.153Z,100319.33
2019-05-16T07:55:16.873Z,100322.94
2019-05-16T07:57:50.627Z,100314.15
2019-05-16T08:00:24.362Z,100314.83
2019-05-16T08:02:56.759Z,100321.01
2019-05-16T08:05:36.675Z,100306.88
2019-05-16T08:08:42.360Z,100300.55
2019-05-16T08:11:14.720Z,100296.67
2019-05-16T08:13:45.962Z,100291.64
2019-05-16T08:16:17.075Z,100302.86
2019-05-16T08:18:50.629Z,100300.07
2019-05-16T08:21:21.715Z,100290.18
2019-05-16T08:23:52.485Z,100292.23
2019-05-16T08:26:23.440Z,100296.41
2019-05-16T08:28:53.874Z,100299.25
2019-05-16T08:31:27.836Z,100299.82
2019-05-16T08:34:02.986Z,100297.34
2019-05-16T08:36:41.089Z,100298.52
2019-05-16T08:39:11.780Z,100300.34
2019-05-16T08:41:42.841Z,100303.34
2019-05-16T08:44:15.448Z,100302.24
2019-05-16T08:46:53.185Z,100299.93
2019-05-16T08:49:22.077Z,100305.61
2019-05-16T08:51:53.444Z,100303.86
2019-05-16T08:54:26.431Z,100297.19
2019-05-16T08:57:24.373Z,100290.23
2019-05-16T08:59:40.777Z,100287.77
2019-05-16T09:02:12.794Z,100286.12
2019-05-16T09:04:53.078Z,100290.77
2019-05-16T09:07:49.113Z,100295.28
2019-05-16T09:13:09.860Z,100285.29
2019-05-16T09:15:43.455Z,100271.70
2019-05-16T09:18:29.037Z,100273.79
2019-05-16T09:21:02.657Z,100278.12
2019-05-16T09:23:33.363Z,100266.52
2019-05-16T09:26:03.918Z,100269.02
2019-05-16T09:28:37.410Z,100263.18
2019-05-16T09:31:07.236Z,100270.45
2019-05-16T09:33:37.709Z,100256.59
2019-05-16T09:36:08.335Z,100256.12
2019-05-16T09:38:39.733Z,100249.39
2019-05-16T09:41:10.071Z,100252.83
2019-05-16T09:43:40.456Z,100257.66
2019-05-16T09:46:13.091Z,100253.40
2019-05-16T09:48:47.506Z,100247.67
2019-05-16T09:51:48.496Z,100249.45
2019-05-16T09:54:37.709Z,100239.02
2019-05-16T09:57:06.647Z,100237.34
2019-05-16T09:59:38.117Z,100228.88
2019-05-16T10:02:08.991Z,100225.20
2019-05-16T10:04:39.293Z,100238.14
2019-05-16T10:07:09.703Z,100231.30
2019-05-16T10:09:46.984Z,100230.47
2019-05-16T10:12:18.427Z,100231.77
2019-05-16T10:14:47.985Z,100225.48
2019-05-16T10:17:18.380Z,100213.19
2019-05-16T10:19:49.145Z,100220.85
2019-05-16T10:22:19.902Z,100222.70
2019-05-16T10:25:01.418Z,100220.13
2019-05-16T10:28:03.761Z,100213.69
2019-05-16T10:31:08.949Z,100217.45
2019-05-16T10:34:08.699Z,100214.20
2019-05-16T10:36:59.234Z,100211.09
2019-05-16T10:40:01.382Z,100208.64
2019-05-16T10:43:17.297Z,100211.25
2019-05-16T10:46:51.880Z,100208.66
2019-05-16T10:54:36.920Z,100215.67
2019-05-16T11:01:26.600Z,100219.87
2019-05-16T11:04:52.741Z,100218.23
2019-05-16T11:07:39.250Z,100211.91
2019-05-16T11:13:59.364Z,100201.72
2019-05-16T11:17:28.339Z,100201.61
2019-05-16T11:19:58.648Z,100200.11
2019-05-16T11:22:37.133Z,100200.44
2019-05-16T11:26:44.623Z,100199.74
2019-05-16T11:29:24.866Z,100195.08
2019-05-16T11:33:12.912Z,100194.09
2019-05-16T11:41:07.395Z,100195.67
2019-05-16T11:44:06.412Z,100183.95
2019-05-16T11:46:48.928Z,100183.58
2019-05-16T11:50:10.103Z,100188.02
2019-05-16T11:53:28.134Z,100181.31
2019-05-16T11:56:59.951Z,100168.98
2019-05-16T11:59:17.048Z,100169.26
2019-05-16T12:02:03.835Z,100165.45
2019-05-16T12:05:17.107Z,100168.66
2019-05-16T12:08:14.332Z,100164.80
2019-05-16T12:23:42.203Z,100166.36
2019-05-16T12:27:32.959Z,100153.39
2019-05-16T12:30:33.665Z,100157.72
2019-05-16T12:34:20.805Z,100154.27
2019-05-16T12:37:23.008Z,100153.66
2019-05-16T12:40:07.895Z,100157.12
2019-05-16T12:43:21.966Z,100153.86
2019-05-16T12:46:36.485Z,100158.23
2019-05-16T12:50:29.019Z,100155.39
2019-05-16T12:57:27.008Z,100160.84
2019-05-16T13:00:01.420Z,100162.98
2019-05-16T13:02:32.902Z,100160.85
2019-05-16T13:05:08.041Z,100154.38
2019-05-16T13:07:53.548Z,100153.06
2019-05-16T13:10:27.773Z,100146.83
2019-05-16T13:13:22.993Z,100145.45
2019-05-16T13:16:37.821Z,100149.50
2019-05-16T13:44:12.761Z,100128.63
2019-05-16T14:12:26.781Z,100124.56
2019-05-16T14:15:47.097Z,100116.50
2019-05-16T14:26:31.159Z,100119.40
2019-05-16T14:30:46.591Z,100120.19
2019-05-16T14:34:38.106Z,100115.84
2019-05-16T14:52:58.702Z,100111.07
2019-05-16T14:56:07.276Z,100108.23
2019-05-16T14:59:30.771Z,100112.64
2019-05-16T15:06:57.398Z,100114.38
2019-05-16T15:10:54.553Z,100106.34
2019-05-16T15:22:19.661Z,100110.56
2019-05-16T15:25:26.506Z,100105.72
2019-05-16T15:31:57.425Z,100101.70
2019-05-16T15:39:54.625Z,100107.76
2019-05-16T16:07:48.117Z,100082.55
2019-05-16T17:12:40.910Z,100094.77
2019-05-16T18:16:21.454Z,100103.62
2019-05-16T18:20:32.411Z,100102.42
2019-05-16T18:23:59.647Z,100098.40
2019-05-16T18:34:33.534Z,100098.36
2019-05-16T18:35:10.827Z,100098.67
2019-05-16T18:48:44.326Z,100100.59
2019-05-16T20:12:46.170Z,100113.78
2019-05-16T20:27:08.994Z,100098.30
2019-05-16T20:31:27.478Z,100098.53
2019-05-16T20:35:26.727Z,100101.28
2019-05-16T22:33:37.254Z,100072.94
2019-05-16T23:03:47.665Z,100059.02
2019-05-16T23:19:56.672Z,100051.31
2019-05-16T23:31:19.223Z,100039.40
2019-05-16T23:48:11.964Z,100017.58
2019-05-16T23:52:16.864Z,100018.44
